createdAt,value
2019-01-14T00:00:45.196Z,5.40
2019-01-14T00:03:51.506Z,5.40
2019-01-14T00:06:56.580Z,5.50
2019-01-14T00:10:01.659Z,5.50
2019-01-14T00:13:06.613Z,5.30
2019-01-14T00:16:12.005Z,5.30
2019-01-14T00:19:17.030Z,5.30
2019-01-14T00:22:22.068Z,5.30
2019-01-14T00:25:27.344Z,5.20
2019-01-14T00:28:32.279Z,5.10
2019-01-14T00:31:37.313Z,5.00
2019-01-14T00:34:42.664Z,4.90
2019-01-14T00:37:47.738Z,4.80
2019-01-14T00:40:52.831Z,4.80
2019-01-14T00:43:58.001Z,4.80
2019-01-14T00:47:03.153Z,4.80
2019-01-14T00:50:08.732Z,4.90
2019-01-14T00:53:13.703Z,4.80
2019-01-14T00:56:18.688Z,4.90
2019-01-14T00:59:23.930Z,4.90
2019-01-14T01:02:29.031Z,5.00
2019-01-14T01:05:36.598Z,5.10
2019-01-14T01:08:41.523Z,5.10
2019-01-14T01:11:46.675Z,5.10
2019-01-14T01:14:51.660Z,5.20
2019-01-14T01:17:56.637Z,5.20
2019-01-14T01:21:01.733Z,5.10
2019-01-14T01:24:06.628Z,5.10
2019-01-14T01:27:11.583Z,5.20
2019-01-14T01:30:18.028Z,5.20
2019-01-14T01:33:23.028Z,5.10
2019-01-14T01:36:31.964Z,5.10
2019-01-14T01:39:35.047Z,5.20
2019-01-14T01:42:40.113Z,5.10
2019-01-14T01:45:45.320Z,5.10
2019-01-14T01:48:50.404Z,5.10
2019-01-14T01:51:55.608Z,5.00
2019-01-14T01:55:00.685Z,5.00
2019-01-14T01:58:05.909Z,4.90
2019-01-14T02:01:10.897Z,4.90
2019-01-14T02:04:15.964Z,4.90
2019-01-14T02:07:21.004Z,4.90
2019-01-14T02:10:25.977Z,4.80
2019-01-14T02:13:30.923Z,4.80
2019-01-14T02:16:36.028Z,4.70
2019-01-14T02:19:41.029Z,4.80
2019-01-14T02:22:46.149Z,4.80
2019-01-14T02:25:51.115Z,4.90
2019-01-14T02:28:56.470Z,4.90
2019-01-14T02:32:01.412Z,5.00
2019-01-14T02:35:07.217Z,5.00
2019-01-14T02:38:12.064Z,4.90
2019-01-14T02:41:16.996Z,4.90
2019-01-14T02:44:21.957Z,4.90
2019-01-14T02:47:26.872Z,4.80
2019-01-14T02:50:32.239Z,4.80
2019-01-14T02:53:37.237Z,4.80
2019-01-14T02:56:42.376Z,4.80
2019-01-14T02:59:47.305Z,4.80
2019-01-14T03:02:52.193Z,4.90
2019-01-14T03:05:57.125Z,4.90
2019-01-14T03:09:02.082Z,5.00
2019-01-14T03:12:07.052Z,5.20
2019-01-14T03:15:12.363Z,5.40
2019-01-14T03:18:17.249Z,5.50
2019-01-14T03:21:22.197Z,5.50
2019-01-14T03:24:27.031Z,5.70
2019-01-14T03:27:31.958Z,5.70
2019-01-14T03:30:37.003Z,5.70
2019-01-14T03:33:41.805Z,5.80
2019-01-14T03:36:46.823Z,5.70
2019-01-14T03:39:51.789Z,5.70
2019-01-14T03:42:56.944Z,5.70
2019-01-14T03:46:01.871Z,5.80
2019-01-14T03:49:06.760Z,5.80
2019-01-14T03:52:11.646Z,5.80
2019-01-14T03:55:16.903Z,5.70
2019-01-14T03:58:22.146Z,5.70
2019-01-14T04:01:27.387Z,5.70
2019-01-14T04:04:32.317Z,5.70
2019-01-14T04:07:37.470Z,5.80
2019-01-14T04:10:42.390Z,5.80
2019-01-14T04:13:47.538Z,5.80
2019-01-14T04:16:52.654Z,5.80
2019-01-14T04:19:57.809Z,5.70
2019-01-14T04:23:02.746Z,5.70
2019-01-14T04:26:07.667Z,5.80
2019-01-14T04:29:12.739Z,5.70
2019-01-14T04:32:18.123Z,5.70
2019-01-14T04:35:24.826Z,5.70
2019-01-14T04:38:29.924Z,5.70
2019-01-14T04:41:34.861Z,5.70
2019-01-14T04:44:40.011Z,5.70
2019-01-14T04:47:45.313Z,5.60
2019-01-14T04:50:50.282Z,5.60
2019-01-14T04:53:55.372Z,5.60
2019-01-14T04:57:00.386Z,5.60
2019-01-14T05:00:08.260Z,5.50
2019-01-14T05:03:13.266Z,5.50
2019-01-14T05:06:18.209Z,5.40
2019-01-14T05:09:23.103Z,5.30
2019-01-14T05:12:28.182Z,5.30
2019-01-14T05:15:33.141Z,5.30
2019-01-14T05:18:38.245Z,5.20
2019-01-14T05:21:43.322Z,5.20
2019-01-14T05:24:48.541Z,5.20
2019-01-14T05:27:53.610Z,5.20
2019-01-14T05:30:58.840Z,5.40
2019-01-14T05:34:03.801Z,5.50
2019-01-14T05:37:08.939Z,5.70
2019-01-14T05:40:16.354Z,5.80
2019-01-14T05:43:21.456Z,5.90
2019-01-14T05:46:26.497Z,5.90
2019-01-14T05:49:31.755Z,6.00
2019-01-14T05:52:36.693Z,6.10
2019-01-14T05:55:41.548Z,6.20
2019-01-14T05:58:46.439Z,6.20
2019-01-14T06:01:51.501Z,6.20
2019-01-14T06:04:56.600Z,6.30
2019-01-14T06:08:01.577Z,6.30
2019-01-14T06:11:06.572Z,6.30
2019-01-14T06:14:11.664Z,6.30
2019-01-14T06:17:16.755Z,6.30
2019-01-14T06:20:23.086Z,6.30
2019-01-14T06:23:28.003Z,6.40
2019-01-14T06:26:33.407Z,6.40
2019-01-14T06:29:38.552Z,6.30
2019-01-14T06:32:43.534Z,6.40
2019-01-14T06:35:48.648Z,6.30
2019-01-14T06:38:53.612Z,6.30
2019-01-14T06:41:58.722Z,6.30
2019-01-14T06:45:03.790Z,6.30
2019-01-14T06:48:09.141Z,6.30
2019-01-14T06:51:14.153Z,6.30
2019-01-14T06:54:19.459Z,6.30
2019-01-14T06:57:24.438Z,6.30
2019-01-14T07:00:29.638Z,6.30
2019-01-14T07:03:34.330Z,6.30
2019-01-14T07:06:39.314Z,6.20
2019-01-14T07:09:46.946Z,6.20
2019-01-14T07:12:52.165Z,6.20
2019-01-14T07:15:57.168Z,6.20
2019-01-14T07:19:02.152Z,6.10
2019-01-14T07:22:07.009Z,6.10
2019-01-14T07:25:12.396Z,6.10
2019-01-14T07:28:17.593Z,6.10
2019-01-14T07:31:22.742Z,6.10
2019-01-14T07:34:27.593Z,6.10
2019-01-14T07:37:32.520Z,6.10
2019-01-14T07:40:37.588Z,6.10
2019-01-14T07:43:42.452Z,6.20
2019-01-14T07:46:47.681Z,6.40
2019-01-14T07:49:52.500Z,6.40
2019-01-14T07:52:57.436Z,6.50
2019-01-14T07:56:02.361Z,6.60
2019-01-14T07:59:07.386Z,6.60
2019-01-14T08:02:12.328Z,6.70
2019-01-14T08:05:17.361Z,6.60
2019-01-14T08:08:22.395Z,6.60
2019-01-14T08:11:27.824Z,6.70
2019-01-14T08:14:32.896Z,6.70
2019-01-14T08:17:37.965Z,6.90
2019-01-14T08:20:42.861Z,7.10
2019-01-14T08:23:47.988Z,7.30
2019-01-14T08:26:52.946Z,7.50
2019-01-14T08:29:57.941Z,7.70
2019-01-14T08:33:02.841Z,7.90
2019-01-14T08:36:07.791Z,8.00
2019-01-14T08:39:12.819Z,8.20
2019-01-14T08:42:18.643Z,8.40
2019-01-14T08:45:23.700Z,8.70
2019-01-14T08:48:28.759Z,8.90
2019-01-14T08:51:33.794Z,9.00
2019-01-14T08:54:38.785Z,9.20
2019-01-14T08:57:43.894Z,9.30
2019-01-14T09:00:49.164Z,9.40
2019-01-14T09:03:54.237Z,9.30
2019-01-14T09:06:59.154Z,9.30
2019-01-14T09:10:05.034Z,9.20
2019-01-14T09:13:10.163Z,9.30
2019-01-14T09:16:15.247Z,9.30
2019-01-14T09:19:20.633Z,9.20
2019-01-14T09:22:25.581Z,9.20
2019-01-14T09:25:30.739Z,9.10
2019-01-14T09:28:35.670Z,9.20
2019-01-14T09:31:40.771Z,9.20
2019-01-14T09:34:45.992Z,9.40
2019-01-14T09:37:51.073Z,9.50
2019-01-14T09:40:56.250Z,9.50
2019-01-14T09:44:01.067Z,9.70
2019-01-14T09:47:06.010Z,9.90
2019-01-14T09:50:12.191Z,10.00
2019-01-14T09:53:17.418Z,10.10
2019-01-14T09:56:22.281Z,10.10
2019-01-14T09:59:27.262Z,9.90
2019-01-14T10:02:32.219Z,9.70
2019-01-14T10:05:37.155Z,9.60
2019-01-14T10:08:43.155Z,9.60
2019-01-14T10:11:48.277Z,9.40
2019-01-14T10:14:53.367Z,9.40
2019-01-14T10:18:01.751Z,9.40
2019-01-14T10:21:06.954Z,9.40
2019-01-14T10:24:12.128Z,9.30
2019-01-14T10:27:17.213Z,9.30
2019-01-14T10:30:22.449Z,9.30
2019-01-14T10:33:27.725Z,9.20
2019-01-14T10:36:32.850Z,9.20
2019-01-14T10:39:37.803Z,9.20
2019-01-14T10:42:42.792Z,9.30
2019-01-14T10:45:48.150Z,9.40
2019-01-14T10:48:53.280Z,9.40
2019-01-14T10:51:58.573Z,9.50
2019-01-14T10:55:03.592Z,9.60
2019-01-14T10:58:08.644Z,9.70
2019-01-14T11:01:14.201Z,9.90
2019-01-14T11:04:19.223Z,9.90
2019-01-14T11:07:24.327Z,10.10
2019-01-14T11:10:29.162Z,10.20
2019-01-14T11:13:34.389Z,10.50
2019-01-14T11:16:39.290Z,10.60
2019-01-14T11:19:44.767Z,10.80
2019-01-14T11:22:50.006Z,12.00
2019-01-14T11:25:55.043Z,16.10
2019-01-14T11:29:00.253Z,20.60
2019-01-14T11:32:05.349Z,23.60
2019-01-14T11:35:10.594Z,23.60
2019-01-14T11:39:05.189Z,21.70
2019-01-14T11:42:10.327Z,20.60
2019-01-14T11:45:15.553Z,21.90
2019-01-14T11:48:20.665Z,24.40
2019-01-14T11:51:25.785Z,27.50
2019-01-14T11:54:30.801Z,29.40
2019-01-14T11:57:35.917Z,30.30
2019-01-14T12:00:40.977Z,30.90
2019-01-14T12:03:46.135Z,30.90
2019-01-14T12:06:51.028Z,31.00
2019-01-14T12:09:55.905Z,31.50
2019-01-14T12:13:00.834Z,31.40
2019-01-14T12:16:05.967Z,31.10
2019-01-14T12:19:10.990Z,29.70
2019-01-14T12:22:16.281Z,29.40
2019-01-14T12:25:21.473Z,28.50
2019-01-14T12:28:26.414Z,26.20
2019-01-14T12:31:31.528Z,24.50
2019-01-14T12:34:36.645Z,23.90
2019-01-14T12:37:41.628Z,23.50
2019-01-14T12:40:46.509Z,21.80
2019-01-14T12:43:51.501Z,21.90
2019-01-14T12:46:56.667Z,21.20
2019-01-14T12:50:02.041Z,20.70
2019-01-14T12:53:07.238Z,22.00
2019-01-14T12:56:12.215Z,20.90
2019-01-14T12:59:17.179Z,19.10
2019-01-14T13:02:22.153Z,18.10
2019-01-14T13:05:27.889Z,18.30
2019-01-14T13:08:33.060Z,19.50
2019-01-14T13:11:38.059Z,20.80
2019-01-14T13:14:43.087Z,21.70
2019-01-14T13:17:48.380Z,20.90
2019-01-14T13:20:53.296Z,20.00
2019-01-14T13:23:58.366Z,18.60
2019-01-14T13:27:03.373Z,17.10
2019-01-14T13:30:12.189Z,16.10
2019-01-14T13:33:17.432Z,15.60
2019-01-14T13:36:22.473Z,15.00
2019-01-14T13:39:33.732Z,15.20
2019-01-14T13:42:34.086Z,15.10
2019-01-14T13:45:39.245Z,14.70
2019-01-14T13:48:44.198Z,14.20
2019-01-14T13:51:49.329Z,15.40
2019-01-14T13:54:54.290Z,16.90
2019-01-14T13:58:00.121Z,17.20
2019-01-14T14:01:05.221Z,16.70
2019-01-14T14:04:10.255Z,16.60
2019-01-14T14:07:15.375Z,17.20
2019-01-14T14:10:31.478Z,18.10
2019-01-14T14:13:36.602Z,17.90
2019-01-14T14:16:41.915Z,18.10
2019-01-14T14:19:46.891Z,18.30
2019-01-14T14:22:51.988Z,18.00
2019-01-14T14:25:56.958Z,17.30
2019-01-14T14:29:02.214Z,16.60
2019-01-14T14:32:07.688Z,15.50
2019-01-14T14:35:13.289Z,14.70
2019-01-14T14:38:18.378Z,14.00
2019-01-14T14:41:23.919Z,13.00
2019-01-14T14:44:29.033Z,12.40
2019-01-14T14:47:33.875Z,11.80
2019-01-14T14:50:38.816Z,11.10
2019-01-14T14:53:43.839Z,10.50
2019-01-14T14:56:48.891Z,10.10
2019-01-14T14:59:56.375Z,9.80
2019-01-14T15:03:01.454Z,9.60
2019-01-14T15:06:06.637Z,9.50
2019-01-14T15:09:11.952Z,9.30
2019-01-14T15:12:17.117Z,9.20
2019-01-14T15:15:24.528Z,9.10
2019-01-14T15:18:29.584Z,9.00
2019-01-14T15:21:34.950Z,8.90
2019-01-14T15:24:40.033Z,8.80
2019-01-14T15:27:45.160Z,8.70
2019-01-14T15:30:50.358Z,8.70
2019-01-14T15:33:55.305Z,8.60
2019-01-14T15:37:00.295Z,8.50
2019-01-14T15:40:07.182Z,8.50
2019-01-14T15:43:12.449Z,8.40
2019-01-14T15:46:17.543Z,8.20
2019-01-14T15:49:22.397Z,8.10
2019-01-14T15:52:27.337Z,8.10
2019-01-14T15:55:32.472Z,8.10
2019-01-14T15:58:37.738Z,8.10
2019-01-14T16:01:42.888Z,8.00
2019-01-14T16:04:47.765Z,7.90
2019-01-14T16:07:52.812Z,8.00
2019-01-14T16:10:58.071Z,7.90
2019-01-14T16:14:03.255Z,7.90
2019-01-14T16:17:08.284Z,8.00
2019-01-14T16:20:15.381Z,7.90
2019-01-14T16:23:20.349Z,7.90
2019-01-14T16:26:25.521Z,7.90
2019-01-14T16:29:30.590Z,7.90
2019-01-14T16:32:35.716Z,7.90
2019-01-14T16:35:40.902Z,7.80
2019-01-14T16:38:45.855Z,7.80
2019-01-14T16:41:52.138Z,7.70
2019-01-14T16:44:57.254Z,7.60
2019-01-14T16:48:02.293Z,7.50
2019-01-14T16:51:07.253Z,7.40
2019-01-14T16:54:12.316Z,7.40
2019-01-14T16:57:17.406Z,7.30
2019-01-14T17:00:22.425Z,7.30
2019-01-14T17:03:27.285Z,7.20
2019-01-14T17:06:32.261Z,7.10
2019-01-14T17:09:37.338Z,7.10
2019-01-14T17:12:42.423Z,7.00
2019-01-14T17:15:47.473Z,6.90
2019-01-14T17:18:53.619Z,6.90
2019-01-14T17:21:58.794Z,6.90
2019-01-14T17:25:03.803Z,6.90
2019-01-14T17:28:09.174Z,6.80
2019-01-14T17:31:14.362Z,6.80
2019-01-14T17:34:19.404Z,6.70
2019-01-14T17:37:24.489Z,6.70
2019-01-14T17:40:32.632Z,6.60
2019-01-14T17:43:35.984Z,6.60
2019-01-14T17:46:41.035Z,6.70
2019-01-14T17:49:46.152Z,6.70
2019-01-14T17:52:50.976Z,6.70
2019-01-14T17:55:56.036Z,6.60
2019-01-14T17:59:01.246Z,6.60
2019-01-14T18:02:06.269Z,6.50
2019-01-14T18:05:11.739Z,6.60
2019-01-14T18:08:16.760Z,6.50
2019-01-14T18:11:21.961Z,6.60
2019-01-14T18:14:27.100Z,6.70
2019-01-14T18:17:34.092Z,6.80
2019-01-14T18:20:38.979Z,6.90
2019-01-14T18:23:44.337Z,6.90
2019-01-14T18:26:49.403Z,7.10
2019-01-14T18:29:54.435Z,7.10
2019-01-14T18:32:59.472Z,7.00
2019-01-14T18:36:04.513Z,7.10
2019-01-14T18:39:10.025Z,7.00
2019-01-14T18:42:15.183Z,7.00
2019-01-14T18:45:21.034Z,6.90
2019-01-14T18:48:26.038Z,6.90
2019-01-14T18:51:31.597Z,6.80
2019-01-14T18:54:36.887Z,6.60
2019-01-14T18:57:42.039Z,6.60
2019-01-14T19:00:47.495Z,6.50
2019-01-14T19:03:52.822Z,6.50
2019-01-14T19:06:57.899Z,6.50
2019-01-14T19:10:02.886Z,6.40
2019-01-14T19:13:08.254Z,6.30
2019-01-14T19:16:14.977Z,6.20
2019-01-14T19:19:20.038Z,6.20
2019-01-14T19:22:25.145Z,6.10
2019-01-14T19:25:32.015Z,6.10
2019-01-14T19:28:37.175Z,6.20
2019-01-14T19:31:42.200Z,6.20
2019-01-14T19:34:47.480Z,6.20
2019-01-14T19:37:52.729Z,6.20
2019-01-14T19:41:01.715Z,6.30
2019-01-14T19:44:04.750Z,6.30
2019-01-14T19:47:09.782Z,6.40
2019-01-14T19:50:23.357Z,6.30
2019-01-14T19:53:28.393Z,6.20
2019-01-14T19:56:33.546Z,6.20
2019-01-14T19:59:40.775Z,6.00
2019-01-14T20:02:46.049Z,5.50
2019-01-14T20:05:51.193Z,5.20
2019-01-14T20:08:56.295Z,5.10
2019-01-14T20:12:01.291Z,5.00
2019-01-14T20:15:07.889Z,4.90
2019-01-14T20:18:12.982Z,4.80
2019-01-14T20:21:18.068Z,4.60
2019-01-14T20:24:24.933Z,4.60
2019-01-14T20:27:30.041Z,4.50
2019-01-14T20:30:35.215Z,4.40
2019-01-14T20:33:40.225Z,4.40
2019-01-14T20:36:45.510Z,4.50
2019-01-14T20:39:50.567Z,4.60
2019-01-14T20:42:55.516Z,4.70
2019-01-14T20:46:00.475Z,4.80
2019-01-14T20:49:05.562Z,4.90
2019-01-14T20:52:13.064Z,5.00
2019-01-14T20:55:18.364Z,5.00
2019-01-14T20:58:23.325Z,5.10
2019-01-14T21:01:28.340Z,5.00
2019-01-14T21:04:33.656Z,5.10
2019-01-14T21:07:39.160Z,5.20
2019-01-14T21:10:44.220Z,5.20
2019-01-14T21:13:49.544Z,5.20
2019-01-14T21:16:54.769Z,5.10
2019-01-14T21:19:59.812Z,4.90
2019-01-14T21:23:05.016Z,4.90
2019-01-14T21:26:10.026Z,4.70
2019-01-14T21:29:14.900Z,4.70
2019-01-14T21:32:20.003Z,4.60
2019-01-14T21:35:24.998Z,4.60
2019-01-14T21:38:30.223Z,4.50
2019-01-14T21:41:35.326Z,4.50
2019-01-14T21:44:40.695Z,4.50
2019-01-14T21:47:46.008Z,4.30
2019-01-14T21:50:51.035Z,4.20
2019-01-14T21:53:56.313Z,4.10
2019-01-14T21:57:01.350Z,3.90
2019-01-14T22:00:09.107Z,3.80
2019-01-14T22:03:15.598Z,3.80
2019-01-14T22:06:21.081Z,3.70
2019-01-14T22:09:26.286Z,3.60
2019-01-14T22:12:31.241Z,3.50
2019-01-14T22:15:36.556Z,3.50
2019-01-14T22:18:41.805Z,3.50
2019-01-14T22:21:47.035Z,3.50
2019-01-14T22:24:52.089Z,3.50
2019-01-14T22:27:57.380Z,3.70
2019-01-14T22:31:02.338Z,3.80
2019-01-14T22:34:07.736Z,3.80
2019-01-14T22:37:13.055Z,4.00
2019-01-14T22:40:18.241Z,3.90
2019-01-14T22:43:23.498Z,3.80
2019-01-14T22:46:28.586Z,4.00
2019-01-14T22:49:35.273Z,4.00
2019-01-14T22:52:40.257Z,4.10
2019-01-14T22:55:45.294Z,4.10
2019-01-14T22:58:50.579Z,4.10
2019-01-14T23:01:56.113Z,4.00
2019-01-14T23:05:01.252Z,3.90
2019-01-14T23:08:06.590Z,4.00
2019-01-14T23:11:11.877Z,4.10
2019-01-14T23:14:16.984Z,4.10
2019-01-14T23:17:21.980Z,4.00
2019-01-14T23:20:27.050Z,4.00
2019-01-14T23:23:31.977Z,4.00
2019-01-14T23:26:37.138Z,4.00
2019-01-14T23:29:42.038Z,4.00
2019-01-14T23:32:47.176Z,4.00
2019-01-14T23:35:52.185Z,3.90
2019-01-14T23:38:57.465Z,3.90
2019-01-14T23:42:02.507Z,4.00
2019-01-14T23:45:07.728Z,4.00
2019-01-14T23:48:12.661Z,4.00
2019-01-14T23:51:17.767Z,3.80
2019-01-14T23:54:22.744Z,3.90
2019-01-14T23:57:27.913Z,3.90
